Sockeye Blue — CFN6147 — position and weather

sailwx.info

Track history (hours):
 
Tides and Currents Weather Stations Pressure Air Temp Water Temp Dewpoint Dewpoint Depression Visibility Wind Speed Wind Dir Waves Ship Positions

Sockeye Blue

Last reported at 2017-Dec-18 11:06 UTC. Time now 2018-Apr-22 08:32 UTC.
Position S 27°05' E 153°36'.
Warning: this ship's position is months out of date.

; draft 2 m.

Type: Pleasure craft. MMSI: 316024102.

Date/timePositionNaut miles runAvg speedWind from/ knotsBaromVisibWave heightAir tempDewpointWater temp
2017-Dec-18 11:06S 27°05' E 153°36'1 6.9
2017-Dec-18 10:56S 27°06' E 153°36'21 6.7
2017-Dec-18 07:51S 27°27' E 153°38'2 6.2
2017-Dec-18 07:30S 27°29' E 153°38'3 6.1
2017-Dec-18 07:00S 27°32' E 153°38'3 5.9
2017-Dec-18 06:30S 27°35' E 153°38'3 5.9
2017-Dec-18 06:01S 27°38' E 153°38'3 5.8
2017-Dec-18 05:30S 27°40' E 153°39'3 5.9
2017-Dec-18 05:00S 27°43' E 153°39'3 6.2
2017-Dec-18 04:31S 27°47' E 153°39'3 6.5
2017-Dec-18 04:00S 27°50' E 153°39'3 6.9
2017-Dec-18 03:31S 27°53' E 153°40'4 7.0
2017-Dec-18 03:01S 27°57' E 153°40'4 7.0
2017-Dec-18 02:31S 28°00' E 153°40'3 6.9
2017-Dec-18 02:01S 28°04' E 153°41'3 6.6
2017-Dec-18 01:31S 28°07' E 153°41'3 6.7
2017-Dec-18 01:00S 28°10' E 153°41'3 6.5
2017-Dec-18 00:31S 28°13' E 153°41'3 6.9
2017-Dec-18 00:01S 28°17' E 153°42'3 6.9
2017-Dec-17 23:31S 28°20' E 153°42'3 6.8
2017-Dec-17 23:00S 28°24' E 153°43'3 6.8
2017-Dec-17 22:30S 28°27' E 153°43'3 6.5
2017-Dec-17 22:01S 28°30' E 153°43'4 6.6
2017-Dec-17 21:26S 28°34' E 153°43'244 6.1
2017-Dec-16 05:38S 32°31' E 152°32'1 6.7
2017-Dec-16 05:29S 32°31' E 152°31'3 6.9
2017-Dec-16 05:00S 32°33' E 152°28'3 6.8
2017-Dec-16 04:31S 32°36' E 152°25'3 6.8
2017-Dec-16 04:00S 32°38' E 152°22'3 6.8
2017-Dec-16 03:31S 32°40' E 152°19'3 6.8
2017-Dec-16 03:00S 32°43' E 152°17'4 7.1
2017-Dec-16 02:30S 32°45' E 152°13'4 7.1
2017-Dec-16 02:01S 32°47' E 152°10'4 7.5
2017-Dec-16 01:30S 32°49' E 152°06'4 7.7
2017-Dec-16 01:00S 32°50' E 152°02'4 7.8
2017-Dec-16 00:31S 32°52' E 151°58'4 8.3
2017-Dec-16 00:00S 32°53' E 151°53'6 8.0
2017-Dec-15 23:18S 32°55' E 151°47'1 0.0
2017-Dec-14 18:12S 32°55' E 151°46'0 0.0
2017-Dec-14 18:00S 32°55' E 151°46'0 0.0
2017-Dec-14 17:30S 32°55' E 151°46'0 0.0
2017-Dec-14 17:00S 32°55' E 151°46'0 0.0
2017-Dec-14 16:25S 32°55' E 151°46'0 0.0
2017-Dec-14 16:00S 32°55' E 151°46'0 0.0
2017-Dec-14 13:14S 32°55' E 151°46'0 0.0
2017-Dec-14 13:00S 32°55' E 151°46'0 0.0
2017-Dec-14 12:31S 32°55' E 151°46'0 0.0
2017-Dec-14 12:00S 32°55' E 151°46'0 0.0
2017-Dec-14 11:30S 32°55' E 151°46'0 0.0
2017-Dec-14 10:34S 32°55' E 151°46'0 0.0
2017-Dec-14 08:17S 32°55' E 151°46'0 0.0
2017-Dec-14 07:54S 32°55' E 151°46'  
Track history (hours):
 
Tides and Currents Weather Stations Pressure Air Temp Water Temp Dewpoint Dewpoint Depression Visibility Wind Speed Wind Dir Waves Ship Positions

Sockeye Blue

Last reported at 2017-Dec-18 11:06 UTC. Time now 2018-Apr-22 08:32 UTC.
Position S 27°05' E 153°36'.
Warning: this ship's position is months out of date.

; draft 2 m.

Type: Pleasure craft. MMSI: 316024102.

Date/timePositionNaut miles runAvg speedWind from/ knotsBaromVisibWave heightAir tempDewpointWater temp
2017-Dec-18 11:06S 27°05' E 153°36'1 6.9
2017-Dec-18 10:56S 27°06' E 153°36'21 6.7
2017-Dec-18 07:51S 27°27' E 153°38'2 6.2
2017-Dec-18 07:30S 27°29' E 153°38'3 6.1
2017-Dec-18 07:00S 27°32' E 153°38'3 5.9
2017-Dec-18 06:30S 27°35' E 153°38'3 5.9
2017-Dec-18 06:01S 27°38' E 153°38'3 5.8
2017-Dec-18 05:30S 27°40' E 153°39'3 5.9
2017-Dec-18 05:00S 27°43' E 153°39'3 6.2
2017-Dec-18 04:31S 27°47' E 153°39'3 6.5
2017-Dec-18 04:00S 27°50' E 153°39'3 6.9
2017-Dec-18 03:31S 27°53' E 153°40'4 7.0
2017-Dec-18 03:01S 27°57' E 153°40'4 7.0
2017-Dec-18 02:31S 28°00' E 153°40'3 6.9
2017-Dec-18 02:01S 28°04' E 153°41'3 6.6
2017-Dec-18 01:31S 28°07' E 153°41'3 6.7
2017-Dec-18 01:00S 28°10' E 153°41'3 6.5
2017-Dec-18 00:31S 28°13' E 153°41'3 6.9
2017-Dec-18 00:01S 28°17' E 153°42'3 6.9
2017-Dec-17 23:31S 28°20' E 153°42'3 6.8
2017-Dec-17 23:00S 28°24' E 153°43'3 6.8
2017-Dec-17 22:30S 28°27' E 153°43'3 6.5
2017-Dec-17 22:01S 28°30' E 153°43'4 6.6
2017-Dec-17 21:26S 28°34' E 153°43'244 6.1
2017-Dec-16 05:38S 32°31' E 152°32'1 6.7
2017-Dec-16 05:29S 32°31' E 152°31'3 6.9
2017-Dec-16 05:00S 32°33' E 152°28'3 6.8
2017-Dec-16 04:31S 32°36' E 152°25'3 6.8
2017-Dec-16 04:00S 32°38' E 152°22'3 6.8
2017-Dec-16 03:31S 32°40' E 152°19'3 6.8
2017-Dec-16 03:00S 32°43' E 152°17'4 7.1
2017-Dec-16 02:30S 32°45' E 152°13'4 7.1
2017-Dec-16 02:01S 32°47' E 152°10'4 7.5
2017-Dec-16 01:30S 32°49' E 152°06'4 7.7
2017-Dec-16 01:00S 32°50' E 152°02'4 7.8
2017-Dec-16 00:31S 32°52' E 151°58'4 8.3
2017-Dec-16 00:00S 32°53' E 151°53'6 8.0
2017-Dec-15 23:18S 32°55' E 151°47'1 0.0
2017-Dec-14 18:12S 32°55' E 151°46'0 0.0
2017-Dec-14 18:00S 32°55' E 151°46'0 0.0
2017-Dec-14 17:30S 32°55' E 151°46'0 0.0
2017-Dec-14 17:00S 32°55' E 151°46'0 0.0
2017-Dec-14 16:25S 32°55' E 151°46'0 0.0
2017-Dec-14 16:00S 32°55' E 151°46'0 0.0
2017-Dec-14 13:14S 32°55' E 151°46'0 0.0
2017-Dec-14 13:00S 32°55' E 151°46'0 0.0
2017-Dec-14 12:31S 32°55' E 151°46'0 0.0
2017-Dec-14 12:00S 32°55' E 151°46'0 0.0
2017-Dec-14 11:30S 32°55' E 151°46'0 0.0
2017-Dec-14 10:34S 32°55' E 151°46'0 0.0
2017-Dec-14 08:17S 32°55' E 151°46'0 0.0
2017-Dec-14 07:54S 32°55' E 151°46'  

Dump ship's entire track history